Terminal Aerodrome Forecast
Issued by NWS Charleston, WV

Current Version | Previous Version | Graphics & Text | Print | Product List | Glossary On
Versions: 1 2 3 4 5 6 7 8 9 10 11 12 13 14 15 16 17 18 19 20 21 22 23 24 25
000
FTUS41 KRLX 142339
TAFPKB
TAF
KPKB 142339Z 1500/1524 07003KT P6SM FEW025
     FM150300 VRB03KT P6SM FEW250
     FM151400 15006KT P6SM SCT150
     FM152000 19008KT P6SM BKN150
     FM152300 20007KT P6SM -SHRA OVC090=

USA.gov is the U.S. government's official web portal to all federal, state and local government web resources and services.